createdAt,value
2023-02-15T00:01:16.222Z,10.7125
2023-02-15T00:04:19.696Z,9.225
2023-02-15T00:07:19.072Z,8.1625
2023-02-15T00:11:18.539Z,13.075
2023-02-15T00:14:19.870Z,11.45
2023-02-15T00:17:17.176Z,12.4875
2023-02-15T00:21:16.071Z,8.325
2023-02-15T00:24:18.778Z,8.2
2023-02-15T00:27:16.360Z,6.6125
2023-02-15T00:31:16.893Z,8.024999999999999
2023-02-15T00:34:19.279Z,10.35
2023-02-15T00:37:17.053Z,6.6875
2023-02-15T00:41:16.699Z,6.7
2023-02-15T00:44:17.171Z,7.899999999999999
2023-02-15T00:47:17.009Z,5.8999999999999995
2023-02-15T00:51:16.732Z,7.175
2023-02-15T00:54:17.589Z,8.149999999999999
2023-02-15T00:57:16.910Z,7.925
2023-02-15T01:01:19.262Z,7.125
2023-02-15T01:04:16.664Z,7.4875
2023-02-15T01:07:16.898Z,6.4
2023-02-15T01:11:18.149Z,8.0125
2023-02-15T01:14:16.528Z,9.525
2023-02-15T01:17:16.504Z,7.049999999999999
2023-02-15T01:21:19.886Z,7.1125
2023-02-15T01:24:17.276Z,5.7
2023-02-15T01:27:17.296Z,7.1625
2023-02-15T01:31:18.525Z,5.5625
2023-02-15T01:34:16.497Z,5.225
2023-02-15T01:37:16.408Z,5.4
2023-02-15T01:41:24.804Z,5.75
2023-02-15T01:44:52.103Z,7.175
2023-02-15T01:47:22.177Z,7
2023-02-15T01:51:21.533Z,7.7875
2023-02-15T01:54:23.261Z,8.024999999999999
2023-02-15T01:57:22.360Z,8.850000000000001
2023-02-15T02:01:17.034Z,5.800000000000001
2023-02-15T02:04:23.358Z,6.225
2023-02-15T02:07:19.879Z,5.8
2023-02-15T02:11:16.831Z,5.95
2023-02-15T02:14:18.004Z,5.9875
2023-02-15T02:17:22.338Z,6.8125
2023-02-15T02:31:39.850Z,5.05
2023-02-15T02:34:21.399Z,5.2625
2023-02-15T02:37:23.794Z,5.1
2023-02-15T02:41:28.462Z,4.550000000000001
2023-02-15T02:44:22.382Z,4.45
2023-02-15T02:47:22.324Z,4.625
2023-02-15T02:51:22.919Z,8.049999999999999
2023-02-15T02:54:16.864Z,5.8125
2023-02-15T02:57:17.949Z,6.8875
2023-02-15T03:01:23.696Z,6.800000000000001
2023-02-15T03:04:21.540Z,6.8875
2023-02-15T03:07:20.939Z,5.0125
2023-02-15T03:11:16.953Z,4.0875
2023-02-15T03:14:19.579Z,6.5625
2023-02-15T03:17:20.153Z,3.9375
2023-02-15T03:21:30.441Z,8.5625
2023-02-15T03:24:22.279Z,4.6875
2023-02-15T03:27:22.579Z,4.55
2023-02-15T03:31:19.974Z,5.6875
2023-02-15T03:34:18.468Z,6.112500000000001
2023-02-15T03:37:26.362Z,4.0375
2023-02-15T03:41:18.432Z,3.65
2023-02-15T03:44:23.833Z,3.6500000000000004
2023-02-15T03:47:20.984Z,5.6499999999999995
2023-02-15T03:51:52.824Z,3.875
2023-02-15T03:54:40.957Z,3.65
2023-02-15T04:02:24.571Z,3.4375
2023-02-15T04:04:20.792Z,4.8125
2023-02-15T04:07:16.876Z,5.225
2023-02-15T04:11:16.260Z,3.7625
2023-02-15T04:31:16.418Z,3.8625
2023-02-15T04:34:16.963Z,21.0375
2023-02-15T04:37:16.670Z,44.5875
2023-02-15T04:41:16.444Z,7.9
2023-02-15T04:44:16.772Z,6.7875
2023-02-15T04:47:16.993Z,4.3625
2023-02-15T04:51:17.648Z,6.125
2023-02-15T04:54:18.423Z,4.6625
2023-02-15T04:57:18.091Z,12.15
2023-02-15T05:01:17.405Z,7.1000000000000005
2023-02-15T05:04:17.007Z,5.4
2023-02-15T05:07:16.731Z,8.2125
2023-02-15T05:11:17.076Z,3.775
2023-02-15T05:14:17.140Z,6.5
2023-02-15T05:17:17.008Z,3.1625
2023-02-15T05:21:17.730Z,3.8375
2023-02-15T05:31:19.330Z,5.9375
2023-02-15T05:34:17.114Z,4.775
2023-02-15T05:37:16.974Z,15.8625
2023-02-15T05:41:17.749Z,7.375
2023-02-15T05:44:18.797Z,9.149999999999999
2023-02-15T05:47:17.779Z,7.025
2023-02-15T05:51:18.127Z,4.35
2023-02-15T05:54:18.235Z,9.424999999999999
2023-02-15T05:57:17.968Z,6.05
2023-02-15T06:01:18.257Z,4.75
2023-02-15T06:04:17.821Z,4.4625
2023-02-15T06:07:16.499Z,4.7125
2023-02-15T06:11:16.336Z,6.5125
2023-02-15T06:14:16.902Z,5.45
2023-02-15T06:17:17.983Z,3.7249999999999996
2023-02-15T06:21:16.772Z,4.1
2023-02-15T06:24:16.952Z,3.2375
2023-02-15T06:27:16.762Z,10.399999999999999
2023-02-15T06:31:16.686Z,3.3625
2023-02-15T06:34:16.654Z,2.825
2023-02-15T06:37:16.553Z,4.95
2023-02-15T06:41:16.332Z,5.925000000000001
2023-02-15T06:44:16.661Z,3.75
2023-02-15T06:47:16.828Z,6.45
2023-02-15T06:51:16.848Z,7.5625
2023-02-15T06:54:17.518Z,4.75
2023-02-15T06:57:17.458Z,6.6625
2023-02-15T07:01:16.661Z,4.950000000000001
2023-02-15T07:04:16.911Z,6.975
2023-02-15T07:07:16.782Z,4.574999999999999
2023-02-15T07:21:16.700Z,3.4625000000000004
2023-02-15T07:24:17.103Z,6.9625
2023-02-15T07:27:16.841Z,5.2
2023-02-15T07:31:16.412Z,8.587499999999999
2023-02-15T07:34:17.554Z,13.175
2023-02-15T07:37:16.573Z,21.1375
2023-02-15T07:41:16.573Z,16.2
2023-02-15T07:44:16.773Z,13.625
2023-02-15T07:47:16.525Z,10.4
2023-02-15T07:51:17.076Z,9.575
2023-02-15T07:54:16.544Z,9.3125
2023-02-15T07:57:16.517Z,8.5
2023-02-15T08:01:17.480Z,5.175
2023-02-15T08:04:17.624Z,5.2
2023-02-15T08:07:16.999Z,6.4
2023-02-15T08:11:35.475Z,6.525
2023-02-15T08:14:18.741Z,7.4625
2023-02-15T08:17:17.200Z,6.45
2023-02-15T08:21:16.785Z,8.9375
2023-02-15T08:24:18.898Z,5.4625
2023-02-15T08:27:17.220Z,6.05
2023-02-15T08:31:16.804Z,5.574999999999999
2023-02-15T08:34:19.486Z,5.075
2023-02-15T08:37:16.762Z,5.5
2023-02-15T08:41:18.584Z,5.3375
2023-02-15T08:44:18.432Z,7.3125
2023-02-15T08:47:16.853Z,10.662500000000001
2023-02-15T08:51:18.202Z,7.7749999999999995
2023-02-15T08:54:19.734Z,9.3875
2023-02-15T08:57:16.734Z,6.225
2023-02-15T09:01:21.853Z,5.0625
2023-02-15T09:04:17.722Z,7.6000000000000005
2023-02-15T09:07:18.582Z,6.3625
2023-02-15T09:11:20.457Z,10.2375
2023-02-15T09:14:18.800Z,7.85
2023-02-15T09:17:16.655Z,7.8625
2023-02-15T09:21:18.897Z,11.425
2023-02-15T09:24:17.925Z,8.962499999999999
2023-02-15T09:27:17.030Z,11.2875
2023-02-15T09:31:18.821Z,10.45
2023-02-15T09:34:19.738Z,10.149999999999999
2023-02-15T09:37:17.383Z,11.25
2023-02-15T09:41:36.096Z,16.549999999999997
2023-02-15T09:44:29.206Z,13.1875
2023-02-15T09:47:39.027Z,12.900000000000002
2023-02-15T10:01:28.040Z,17.2875
2023-02-15T10:04:30.896Z,13.825000000000001
2023-02-15T10:07:33.627Z,13.475000000000001
2023-02-15T10:12:04.841Z,13.5125
2023-02-15T10:14:37.882Z,11.35
2023-02-15T10:17:30.315Z,11.375
2023-02-15T10:21:29.569Z,11.0125
2023-02-15T10:24:48.934Z,8.475
2023-02-15T10:27:20.656Z,9.825000000000001
2023-02-15T10:31:24.558Z,9.9375
2023-02-15T10:34:18.943Z,12.8125
2023-02-15T10:38:02.995Z,16.575
2023-02-15T10:41:30.880Z,10.3625
2023-02-15T10:44:32.915Z,11.899999999999999
2023-02-15T10:47:35.708Z,11.2625
2023-02-15T10:51:25.522Z,13.05
2023-02-15T10:54:27.828Z,10.8625
2023-02-15T10:57:24.184Z,16
2023-02-15T11:01:23.881Z,11.8875
2023-02-15T11:05:31.080Z,12.0125
2023-02-15T11:07:21.509Z,9.5875
2023-02-15T11:11:23.219Z,10.549999999999999
2023-02-15T11:14:23.940Z,8.112499999999999
2023-02-15T11:17:21.474Z,7.575
2023-02-15T11:21:21.776Z,9.087499999999999
2023-02-15T11:24:19.663Z,8.4
2023-02-15T11:27:21.052Z,8.5
2023-02-15T11:31:19.516Z,10.9125
2023-02-15T11:34:23.531Z,8.774999999999999
2023-02-15T11:37:21.272Z,12.087499999999999
2023-02-15T11:41:22.203Z,9
2023-02-15T11:44:21.249Z,6.55
2023-02-15T11:47:17.150Z,12.0125
2023-02-15T11:51:23.652Z,7.5875
2023-02-15T11:54:18.232Z,8.95
2023-02-15T11:57:23.706Z,10.9375
2023-02-15T12:01:22.590Z,8.8125
2023-02-15T12:04:24.060Z,8.4625
2023-02-15T12:07:21.387Z,7.725
2023-02-15T12:11:22.294Z,8.3875
2023-02-15T12:14:17.346Z,9.25
2023-02-15T12:17:18.298Z,8.2
2023-02-15T12:21:27.739Z,9.425
2023-02-15T12:24:20.915Z,10.75
2023-02-15T12:27:19.650Z,11.75
2023-02-15T12:31:23.002Z,10.700000000000001
2023-02-15T12:34:22.170Z,9.125
2023-02-15T12:37:19.365Z,10.425
2023-02-15T12:41:24.761Z,9.712499999999999
2023-02-15T12:44:18.695Z,9.8625
2023-02-15T12:47:20.102Z,10.4125
2023-02-15T12:51:16.869Z,11.975000000000001
2023-02-15T12:54:33.814Z,10.0125
2023-02-15T12:57:28.565Z,10.8375
2023-02-15T13:01:19.195Z,8.975
2023-02-15T13:04:25.379Z,8.825
2023-02-15T13:07:16.547Z,7.725
2023-02-15T13:11:25.496Z,5.987500000000001
2023-02-15T13:14:19.898Z,8.2625
2023-02-15T13:17:19.014Z,7.124999999999999
2023-02-15T13:31:19.593Z,9.0625
2023-02-15T13:34:24.717Z,12.524999999999999
2023-02-15T13:37:23.375Z,10.2625
2023-02-15T13:41:21.947Z,6.375
2023-02-15T13:44:28.288Z,6.1000000000000005
2023-02-15T13:47:27.145Z,6.5375
2023-02-15T13:51:22.044Z,9.325
2023-02-15T13:54:36.661Z,7.262499999999999
2023-02-15T13:57:34.574Z,5.475
2023-02-15T14:01:23.213Z,6.675000000000001
2023-02-15T14:04:34.898Z,7.3375
2023-02-15T14:07:32.107Z,8.95
2023-02-15T14:11:22.207Z,7.7
2023-02-15T14:15:13.636Z,7.3875
2023-02-15T14:17:26.339Z,7.1
2023-02-15T14:21:21.948Z,8.899999999999999
2023-02-15T14:24:27.939Z,14.5625
2023-02-15T14:27:25.001Z,11.9125
2023-02-15T14:31:22.720Z,7.2
2023-02-15T14:34:24.307Z,6.9625
2023-02-15T14:37:29.857Z,6.4375
2023-02-15T14:41:20.853Z,6.774999999999999
2023-02-15T14:44:23.679Z,6.362500000000001
2023-02-15T14:47:23.177Z,5.975
2023-02-15T14:51:55.179Z,6.324999999999999
2023-02-15T14:54:55.337Z,8.3125
2023-02-15T14:57:27.026Z,9.025000000000002
2023-02-15T15:01:26.576Z,7.9125000000000005
2023-02-15T15:04:27.294Z,8.0125
2023-02-15T15:07:22.604Z,8.8375
2023-02-15T15:11:46.522Z,7.9624999999999995
2023-02-15T15:14:49.704Z,8.95
2023-02-15T15:17:57.961Z,6.7125
2023-02-15T15:21:53.210Z,9.825
2023-02-15T15:24:47.124Z,9.837499999999999
2023-02-15T15:27:51.364Z,9.137500000000001
2023-02-15T15:31:23.138Z,16.337500000000002
2023-02-15T15:34:31.651Z,12.7875
2023-02-15T15:38:42.541Z,10.837500000000002
2023-02-15T15:41:19.004Z,12.2625
2023-02-15T15:44:48.789Z,12.299999999999999
2023-02-15T15:47:31.020Z,12.075
2023-02-15T15:51:20.444Z,13.7875
2023-02-15T15:54:20.141Z,13.037500000000001
2023-02-15T15:57:25.341Z,14.0125
2023-02-15T16:01:16.148Z,16.0875
2023-02-15T16:04:26.013Z,18.887500000000003
2023-02-15T16:07:26.406Z,21.224999999999998
2023-02-15T16:11:21.104Z,18.425
2023-02-15T16:14:22.308Z,22.325
2023-02-15T16:17:22.482Z,17.6125
2023-02-15T16:21:19.887Z,22.049999999999997
2023-02-15T16:24:26.023Z,22.2625
2023-02-15T16:27:33.579Z,23.612499999999997
2023-02-15T16:31:17.119Z,18.1
2023-02-15T16:34:17.848Z,17.4375
2023-02-15T16:37:18.520Z,20.3125
2023-02-15T16:41:21.376Z,20.7875
2023-02-15T16:44:19.404Z,22.674999999999997
2023-02-15T16:47:21.305Z,16.9
2023-02-15T16:51:22.416Z,23.674999999999997
2023-02-15T16:54:21.275Z,14.925
2023-02-15T16:57:21.123Z,15.887500000000001
2023-02-15T17:01:20.428Z,20.6875
2023-02-15T17:04:28.598Z,18.6875
2023-02-15T17:07:19.275Z,19.75
2023-02-15T17:11:18.760Z,25.0375
2023-02-15T17:14:21.523Z,23.6
2023-02-15T17:17:16.508Z,16.8875
2023-02-15T17:21:21.841Z,25.174999999999997
2023-02-15T17:24:25.940Z,32.35
2023-02-15T17:27:21.585Z,25.5875
2023-02-15T17:31:19.258Z,28.475
2023-02-15T17:34:52.311Z,34.5875
2023-02-15T17:37:29.429Z,24.6875
2023-02-15T17:41:16.486Z,29.025
2023-02-15T17:44:18.962Z,25.375
2023-02-15T17:47:19.738Z,26.75
2023-02-15T17:51:19.352Z,32.224999999999994
2023-02-15T18:11:51.192Z,37.1875
2023-02-15T18:14:17.280Z,35.175
2023-02-15T18:17:18.562Z,33.5
2023-02-15T18:21:17.285Z,37.45
2023-02-15T18:24:20.680Z,49.3625
2023-02-15T18:27:17.611Z,67.1625
2023-02-15T18:31:18.859Z,38.974999999999994
2023-02-15T18:34:24.458Z,29.362500000000004
2023-02-15T18:37:20.006Z,29.937500000000004
2023-02-15T18:41:18.879Z,36.475
2023-02-15T18:44:16.805Z,29.4375
2023-02-15T18:47:16.521Z,35.4375
2023-02-15T18:51:20.415Z,27.2
2023-02-15T18:54:20.852Z,26.275
2023-02-15T18:57:17.157Z,30.45
2023-02-15T19:01:20.136Z,26.475
2023-02-15T19:04:18.117Z,21.725
2023-02-15T19:07:20.902Z,20.7625
2023-02-15T19:11:19.842Z,21.9
2023-02-15T19:14:25.969Z,19.9875
2023-02-15T19:17:18.911Z,26.1625
2023-02-15T19:21:16.201Z,32.55
2023-02-15T19:24:21.260Z,24.700000000000003
2023-02-15T19:27:22.454Z,23.925
2023-02-15T19:31:18.303Z,35.15
2023-02-15T19:34:18.377Z,29.1625
2023-02-15T19:37:23.879Z,26.0875
2023-02-15T19:41:22.611Z,21.5
2023-02-15T19:44:18.416Z,21.8875
2023-02-15T19:47:17.475Z,23.0375
2023-02-15T19:51:18.397Z,25.675
2023-02-15T19:54:27.725Z,25.9
2023-02-15T19:57:18.517Z,22.45
2023-02-15T20:01:19.403Z,21.762500000000003
2023-02-15T20:04:18.002Z,19.3625
2023-02-15T20:07:24.183Z,22.35
2023-02-15T20:11:16.388Z,21.6125
2023-02-15T20:14:17.828Z,21.3875
2023-02-15T20:17:16.953Z,20.075
2023-02-15T20:21:18.848Z,20.962500000000002
2023-02-15T20:24:19.396Z,21.6625
2023-02-15T20:27:18.717Z,21.475
2023-02-15T20:31:19.272Z,30.1
2023-02-15T20:34:17.337Z,23.5625
2023-02-15T20:37:22.923Z,26.2
2023-02-15T20:41:49.062Z,26.9625
2023-02-15T20:44:22.865Z,25.549999999999997
2023-02-15T20:47:16.517Z,26.2375
2023-02-15T20:51:19.159Z,24.65
2023-02-15T20:54:19.592Z,20.612499999999997
2023-02-15T20:57:17.154Z,22.55
2023-02-15T21:01:16.988Z,27.3125
2023-02-15T21:04:19.244Z,22.387500000000003
2023-02-15T21:07:19.169Z,27.425
2023-02-15T21:11:19.034Z,21.5
2023-02-15T21:14:18.661Z,21.887500000000003
2023-02-15T21:17:16.921Z,27.9125
2023-02-15T21:21:21.639Z,28.6125
2023-02-15T21:31:18.786Z,20.8125
2023-02-15T21:34:16.857Z,25.5875
2023-02-15T21:37:29.482Z,19.35
2023-02-15T21:52:22.839Z,23.5125
2023-02-15T21:54:18.817Z,24.8125
2023-02-15T21:57:17.086Z,19.5375
2023-02-15T22:01:21.915Z,22.175
2023-02-15T22:04:21.740Z,20.825
2023-02-15T22:07:18.657Z,35.3625
2023-02-15T22:11:19.148Z,24.1875
2023-02-15T22:14:36.851Z,19.8875
2023-02-15T22:17:19.309Z,21.85
2023-02-15T22:21:17.010Z,22.5625
2023-02-15T22:24:16.819Z,20.9875
2023-02-15T22:27:20.425Z,19.15
2023-02-15T22:31:20.975Z,26.8125
2023-02-15T22:34:25.138Z,21.725
2023-02-15T22:37:16.546Z,19.1625
2023-02-15T22:41:17.129Z,21.725
2023-02-15T22:44:21.796Z,18.825000000000003
2023-02-15T22:47:20.729Z,25.1125
2023-02-15T22:51:18.803Z,21.275
2023-02-15T22:54:17.623Z,19.825
2023-02-15T22:57:20.965Z,20.775
2023-02-15T23:01:25.863Z,30.612499999999997
2023-02-15T23:04:19.897Z,28.987499999999997
2023-02-15T23:07:18.685Z,24.0125
2023-02-15T23:11:16.261Z,30.112499999999997
2023-02-15T23:14:24.278Z,35.45
2023-02-15T23:17:16.373Z,35.0125
2023-02-15T23:21:20.425Z,25.4375
2023-02-15T23:24:19.338Z,30.9125
2023-02-15T23:28:25.503Z,24.7375
2023-02-15T23:31:19.376Z,28.162499999999998
2023-02-15T23:34:21.683Z,22.5625
2023-02-15T23:37:17.659Z,21.325000000000003
2023-02-15T23:41:26.776Z,22.8125
2023-02-15T23:44:18.628Z,19.237499999999997
2023-02-15T23:47:20.126Z,20.512500000000003
2023-02-15T23:51:17.371Z,23.287499999999998
2023-02-15T23:54:19.282Z,22.025
2023-02-15T23:57:16.807Z,24.3375
